Time;durP1;ratioP1;P1;durP2;ratioP2;P2;SDS_P1;SDS_P2;PMS_P1;PMS_P2;Temp;Humidity;BMP_temperature;BMP_pressure;BME280_temperature;BME280_humidity;BME280_pressure;Samples;Min_cycle;Max_cycle;Signal;HPM_P1;HPM_P2
2023/05/18 00:00:22;;;;;;;;;11.75;10.00;;;;;11.63;71.71;100887.25;5079191;28;45547;-71
2023/05/18 00:02:48;;;;;;;;;10.25;8.75;;;;;11.66;71.84;100896.09;5079136;28;45544;-71
2023/05/18 00:05:14;;;;;;;;;12.00;10.25;;;;;11.62;71.79;100889.00;5076861;28;46673;-71
2023/05/18 00:07:39;;;;;;;;;8.75;7.50;;;;;11.54;71.78;100890.47;5078939;28;45460;-71
2023/05/18 00:10:06;;;;;;;;;9.75;7.75;;;;;11.44;72.47;100894.53;5077902;28;45345;-71
2023/05/18 00:12:32;;;;;;;;;8.25;6.75;;;;;11.37;71.34;100886.44;5078001;28;46006;-71
2023/05/18 00:14:57;;;;;;;;;8.25;6.00;;;;;11.42;72.34;100897.91;5074310;28;45532;-71
2023/05/18 00:17:23;;;;;;;;;10.00;9.00;;;;;11.22;72.19;100877.25;5072771;28;45360;-71
2023/05/18 00:19:49;;;;;;;;;10.75;8.00;;;;;11.18;72.19;100864.94;5078574;28;45511;-71
2023/05/18 00:22:17;;;;;;;;;7.50;7.25;;;;;11.41;72.33;100904.00;5079352;27;45531;-71
2023/05/18 00:24:47;;;;;;;;;7.00;7.00;;;;;11.39;72.45;100897.84;5078304;28;45559;-71
2023/05/18 00:27:13;;;;;;;;;10.00;9.50;;;;;11.20;72.31;100868.47;5078254;28;45322;-71
2023/05/18 00:29:39;;;;;;;;;8.75;7.00;;;;;11.33;72.33;100898.50;5077572;28;45456;-71
2023/05/18 00:32:04;;;;;;;;;10.75;9.75;;;;;11.25;72.54;100882.56;5078651;28;45583;-71
2023/05/18 00:34:30;;;;;;;;;10.75;10.00;;;;;11.17;73.31;100883.16;5077502;27;45511;-71
2023/05/18 00:36:55;;;;;;;;;11.25;10.25;;;;;11.01;74.13;100889.63;5077080;28;45443;-70
2023/05/18 00:39:21;;;;;;;;;12.00;10.25;;;;;10.98;74.09;100892.13;5066015;28;45592;-70
2023/05/18 00:41:46;;;;;;;;;10.00;8.50;;;;;10.78;73.71;100857.47;5073023;28;45532;-71
2023/05/18 00:44:12;;;;;;;;;6.50;6.00;;;;;10.92;73.93;100885.84;5077828;28;45872;-70
2023/05/18 00:46:38;;;;;;;;;9.00;8.00;;;;;10.80;73.86;100864.50;5071212;28;45432;-71
2023/05/18 00:49:03;;;;;;;;;10.00;6.25;;;;;10.82;74.18;100875.03;5084491;27;45339;-71
2023/05/18 00:51:31;;;;;;;;;7.75;7.50;;;;;10.84;73.68;100882.09;5079205;28;45572;-71
2023/05/18 00:53:58;;;;;;;;;9.50;7.00;;;;;10.91;73.47;100880.56;5078080;28;45591;-71
2023/05/18 00:56:25;;;;;;;;;6.00;5.75;;;;;10.81;73.50;100858.47;5078281;28;45366;-70
2023/05/18 00:58:55;;;;;;;;;9.75;7.25;;;;;10.96;73.22;100873.75;5078764;28;46032;-71
2023/05/18 01:01:29;;;;;;;;;7.25;7.25;;;;;10.95;72.75;100872.00;5073808;27;45695;-69
2023/05/18 01:04:00;;;;;;;;;10.50;9.00;;;;;10.74;72.66;100835.56;5068957;28;46166;-70
2023/05/18 01:06:31;;;;;;;;;6.00;5.50;;;;;11.02;72.84;100870.47;5078277;28;45564;-70
2023/05/18 01:08:58;;;;;;;;;9.00;6.25;;;;;11.02;73.38;100868.75;5078227;28;45554;-71
2023/05/18 01:11:27;;;;;;;;;11.25;11.00;;;;;10.86;73.23;100859.53;5078087;28;45465;-71
2023/05/18 01:14:25;;;;;;;;;9.25;8.50;;;;;10.88;73.18;100870.00;5077660;28;46071;-71
2023/05/18 01:17:00;;;;;;;;;8.50;8.50;;;;;10.92;73.09;100880.63;5077216;27;45559;-71
2023/05/18 01:20:07;;;;;;;;;7.25;7.00;;;;;10.91;72.53;100875.34;5059951;28;45461;-71
2023/05/18 01:23:08;;;;;;;;;8.25;8.00;;;;;10.76;72.87;100854.78;5066888;28;45498;-71
2023/05/18 01:25:53;;;;;;;;;9.00;8.00;;;;;10.74;72.89;100864.31;5043344;28;46519;-71
2023/05/18 01:28:27;;;;;;;;;6.00;6.00;;;;;10.80;72.58;100859.28;5075313;28;45505;-71
2023/05/18 01:30:53;;;;;;;;;8.50;7.75;;;;;10.75;72.47;100863.47;5064897;28;45505;-71
2023/05/18 01:33:19;;;;;;;;;9.00;7.50;;;;;10.63;73.00;100836.94;5077045;28;45413;-72
2023/05/18 01:35:47;;;;;;;;;8.00;5.25;;;;;10.73;72.81;100854.69;5069112;28;46403;-72
2023/05/18 01:38:18;;;;;;;;;7.75;6.00;;;;;10.64;72.94;100850.03;5069356;28;45486;-72
2023/05/18 01:41:13;;;;;;;;;9.75;6.00;;;;;10.71;72.92;100865.09;5077365;28;45447;-72
2023/05/18 01:43:50;;;;;;;;;11.00;8.00;;;;;10.40;72.97;100810.88;5091932;27;45635;-72
2023/05/18 01:46:32;;;;;;;;;8.25;6.00;;;;;10.54;72.92;100842.72;5075595;28;45473;-72
2023/05/18 01:49:04;;;;;;;;;7.75;6.50;;;;;10.57;73.51;100853.28;5076356;28;45762;-71
2023/05/18 01:51:35;;;;;;;;;10.50;8.00;;;;;10.56;73.12;100851.50;5077828;28;45606;-72
2023/05/18 01:54:07;;;;;;;;;9.75;8.50;;;;;10.59;73.18;100861.19;5077787;28;45413;-71
2023/05/18 01:56:34;;;;;;;;;8.75;7.75;;;;;10.48;73.62;100855.56;5076929;27;45592;-72
2023/05/18 01:59:01;;;;;;;;;9.00;9.00;;;;;10.44;74.22;100861.50;5070491;28;45454;-71
2023/05/18 02:01:26;;;;;;;;;10.00;8.00;;;;;10.18;73.52;100816.16;5067023;28;45471;-70
2023/05/18 02:03:52;;;;;;;;;9.00;7.50;;;;;10.35;73.49;100847.31;5077418;28;45389;-70
2023/05/18 02:06:17;;;;;;;;;8.50;6.25;;;;;10.22;73.25;100847.66;5076702;28;45451;-70
2023/05/18 02:08:43;;;;;;;;;5.50;5.50;;;;;10.25;73.72;100857.34;5070473;28;45709;-70
2023/05/18 02:11:09;;;;;;;;;8.00;8.00;;;;;10.15;73.86;100854.38;5066659;28;45414;-70
2023/05/18 02:13:34;;;;;;;;;10.00;9.25;;;;;10.07;73.63;100836.66;5077735;28;45548;-71
2023/05/18 02:16:02;;;;;;;;;7.00;6.00;;;;;10.07;73.55;100848.00;5076678;28;46220;-71
2023/05/18 02:18:28;;;;;;;;;8.75;8.75;;;;;10.16;73.94;100856.13;5076960;28;45569;-70
2023/05/18 02:20:58;;;;;;;;;8.25;8.00;;;;;9.93;73.88;100836.16;5075470;28;45445;-71
2023/05/18 02:23:24;;;;;;;;;9.25;8.75;;;;;9.90;75.29;100838.66;5077416;28;45153;-71
2023/05/18 02:25:50;;;;;;;;;9.00;6.25;;;;;9.83;75.98;100839.22;5076771;28;46642;-71
2023/05/18 02:28:15;;;;;;;;;8.75;8.00;;;;;9.89;75.31;100844.72;5077274;28;45887;-70
2023/05/18 02:30:41;;;;;;;;;9.00;8.00;;;;;9.93;75.38;100847.47;5067700;28;45476;-71
2023/05/18 02:33:07;;;;;;;;;7.50;7.50;;;;;9.90;75.41;100836.03;5070092;28;45424;-71
2023/05/18 02:35:34;;;;;;;;;10.25;9.00;;;;;9.97;74.87;100838.06;5058635;28;45595;-71
2023/05/18 02:38:01;;;;;;;;;9.50;8.00;;;;;10.09;75.46;100858.50;5075980;27;45559;-71
2023/05/18 02:40:28;;;;;;;;;11.75;9.00;;;;;10.12;75.23;100853.38;5075519;28;45408;-71
2023/05/18 02:42:54;;;;;;;;;6.50;5.00;;;;;10.18;74.65;100853.59;5074984;28;45631;-71
2023/05/18 02:45:20;;;;;;;;;10.00;8.00;;;;;10.24;73.98;100861.66;5076093;27;45409;-71
2023/05/18 02:47:46;;;;;;;;;7.50;7.50;;;;;10.12;73.89;100835.97;5076545;28;45506;-71
2023/05/18 02:50:11;;;;;;;;;8.75;7.25;;;;;10.15;73.92;100846.56;5075615;28;45644;-71
2023/05/18 02:52:38;;;;;;;;;8.75;8.00;;;;;10.14;74.02;100841.25;5093131;27;45668;-72
2023/05/18 02:55:05;;;;;;;;;8.00;8.00;;;;;10.09;74.39;100848.06;5076014;28;45499;-71
2023/05/18 02:57:31;;;;;;;;;11.00;9.00;;;;;10.13;74.38;100852.56;5076727;28;45378;-71
2023/05/18 02:59:57;;;;;;;;;6.25;6.25;;;;;10.11;74.21;100847.28;5075248;28;45425;-71
2023/05/18 03:02:23;;;;;;;;;9.50;9.50;;;;;10.06;74.98;100842.72;5076130;28;45463;-70
2023/05/18 03:04:53;;;;;;;;;8.50;8.50;;;;;9.99;74.57;100846.81;5076324;28;45669;-71
2023/05/18 03:07:22;;;;;;;;;8.00;8.00;;;;;9.92;74.36;100853.50;5058515;28;45493;-71
2023/05/18 03:09:47;;;;;;;;;11.00;9.75;;;;;9.83;74.03;100834.00;5074823;28;45514;-71
2023/05/18 03:12:13;;;;;;;;;7.00;6.75;;;;;9.87;74.69;100848.97;5076016;27;45672;-71
2023/05/18 03:14:39;;;;;;;;;9.00;8.00;;;;;9.92;74.72;100853.50;5076225;28;46259;-71
2023/05/18 03:17:07;;;;;;;;;10.00;9.50;;;;;10.01;74.50;100865.13;5074648;28;45437;-71
2023/05/18 03:19:33;;;;;;;;;9.00;9.00;;;;;10.02;75.16;100861.69;5075315;28;45378;-71
2023/05/18 03:21:59;;;;;;;;;7.00;7.00;;;;;9.94;74.35;100850.97;5076438;28;45384;-70
2023/05/18 03:24:28;;;;;;;;;8.50;7.00;;;;;9.92;75.50;100839.59;5074336;28;45711;-71
2023/05/18 03:26:55;;;;;;;;;9.50;8.25;;;;;9.91;74.87;100848.28;5075255;27;45412;-71
2023/05/18 03:29:22;;;;;;;;;10.75;9.00;;;;;9.85;75.15;100832.38;5074424;28;45382;-71
2023/05/18 03:31:47;;;;;;;;;7.75;7.00;;;;;9.72;75.01;100811.03;5060471;28;45343;-71
2023/05/18 03:34:13;;;;;;;;;10.75;9.00;;;;;9.96;74.91;100860.63;5074421;28;45558;-71
2023/05/18 03:36:38;;;;;;;;;9.00;8.00;;;;;9.70;75.23;100820.50;5075950;27;45239;-74
2023/05/18 03:39:08;;;;;;;;;6.25;6.25;;;;;9.92;74.65;100856.13;5076212;28;45563;-71
2023/05/18 03:41:34;;;;;;;;;8.00;7.25;;;;;9.86;74.46;100855.91;5075447;28;45595;-71
2023/05/18 03:43:59;;;;;;;;;8.25;8.00;;;;;9.79;74.39;100843.47;5075865;27;46038;-71
2023/05/18 03:46:25;;;;;;;;;8.00;7.00;;;;;9.72;74.36;100837.13;5075442;28;45446;-71
2023/05/18 03:48:52;;;;;;;;;9.50;8.50;;;;;9.72;75.04;100857.09;5075472;27;45337;-71
2023/05/18 03:51:18;;;;;;;;;10.25;8.25;;;;;9.53;75.18;100850.31;5074786;28;45382;-71
2023/05/18 03:53:44;;;;;;;;;8.50;8.00;;;;;9.61;75.27;100869.75;5075618;28;45432;-71
2023/05/18 03:56:12;;;;;;;;;6.00;4.75;;;;;9.54;75.10;100868.59;5075417;27;45284;-71
2023/05/18 03:58:37;;;;;;;;;9.00;7.75;;;;;9.47;74.70;100853.56;5075723;28;45687;-71
2023/05/18 04:01:03;;;;;;;;;10.00;9.00;;;;;9.44;74.41;100848.19;5075286;28;45408;-71
2023/05/18 04:03:29;;;;;;;;;9.75;8.50;;;;;9.52;75.04;100867.66;5075562;27;45507;-71
2023/05/18 04:05:55;;;;;;;;;10.00;9.00;;;;;9.34;75.00;100838.25;5075266;28;45590;-71
2023/05/18 04:08:24;;;;;;;;;8.00;8.00;;;;;9.54;74.97;100872.94;5075262;28;45508;-71
2023/05/18 04:10:50;;;;;;;;;7.00;5.00;;;;;9.49;75.16;100880.59;5077257;28;45239;-71
2023/05/18 04:13:16;;;;;;;;;7.50;7.50;;;;;9.39;75.35;100870.63;5078422;28;45533;-71
2023/05/18 04:15:42;;;;;;;;;8.75;7.50;;;;;9.41;74.27;100876.78;5078839;28;45600;-71
2023/05/18 04:18:09;;;;;;;;;9.00;8.50;;;;;9.42;74.67;100880.28;5077888;28;45376;-71
2023/05/18 04:20:36;;;;;;;;;9.00;8.00;;;;;9.31;74.70;100872.91;5078515;28;45507;-71
2023/05/18 04:23:03;;;;;;;;;10.50;9.00;;;;;9.29;74.06;100871.06;5077092;28;46646;-71
2023/05/18 04:25:30;;;;;;;;;12.00;8.25;;;;;9.23;74.50;100863.00;5077165;28;45598;-71
2023/05/18 04:27:56;;;;;;;;;9.25;8.25;;;;;9.34;74.59;100898.22;5078721;28;45353;-71
2023/05/18 04:30:22;;;;;;;;;8.75;7.50;;;;;9.24;74.67;100881.31;5077646;28;45865;-71
2023/05/18 04:32:49;;;;;;;;;9.75;9.75;;;;;9.28;74.46;100887.53;5078444;28;46496;-71
2023/05/18 04:35:15;;;;;;;;;8.50;8.50;;;;;9.31;74.53;100888.56;5077178;28;45435;-71
2023/05/18 04:37:41;;;;;;;;;8.50;8.00;;;;;9.33;73.97;100891.19;5077636;28;45282;-70
2023/05/18 04:40:12;;;;;;;;;7.00;7.00;;;;;9.42;73.41;100907.22;5077597;28;45434;-70
2023/05/18 04:42:44;;;;;;;;;10.00;9.00;;;;;9.50;73.09;100916.25;5078132;28;46146;-70
2023/05/18 04:45:11;;;;;;;;;8.75;8.00;;;;;9.46;72.98;100905.66;5077773;27;45598;-71
2023/05/18 04:47:37;;;;;;;;;9.50;9.25;;;;;9.40;73.16;100892.34;5063674;28;45520;-70
2023/05/18 04:50:04;;;;;;;;;5.50;5.50;;;;;9.55;72.88;100908.63;5077956;27;45357;-71
2023/05/18 04:52:30;;;;;;;;;8.00;7.00;;;;;9.58;72.76;100910.47;5077958;27;45667;-71
2023/05/18 04:54:55;;;;;;;;;9.25;8.75;;;;;9.61;72.45;100910.56;5078244;28;45530;-70
2023/05/18 04:57:21;;;;;;;;;8.00;7.50;;;;;9.69;72.07;100915.28;5078622;27;45516;-70
2023/05/18 04:59:46;;;;;;;;;10.75;9.00;;;;;9.78;71.92;100932.13;5078236;28;45492;-70
2023/05/18 05:02:13;;;;;;;;;12.00;9.00;;;;;9.78;72.20;100929.50;5077455;28;45568;-71
2023/05/18 05:04:38;;;;;;;;;9.00;9.00;;;;;9.84;72.41;100934.97;5076426;28;46252;-70
2023/05/18 05:07:04;;;;;;;;;7.50;6.75;;;;;9.79;72.27;100933.88;5077678;28;45823;-70
2023/05/18 05:09:29;;;;;;;;;10.00;6.50;;;;;9.71;72.52;100926.66;5078113;28;45422;-72
2023/05/18 05:11:55;;;;;;;;;9.00;7.50;;;;;9.86;72.49;100939.41;5078053;28;45527;-71
2023/05/18 05:14:20;;;;;;;;;10.75;9.00;;;;;9.86;72.38;100931.56;5076856;28;45390;-71
2023/05/18 05:16:46;;;;;;;;;7.50;7.00;;;;;10.09;71.97;100957.69;5074448;28;45419;-70
2023/05/18 05:19:12;;;;;;;;;7.50;6.25;;;;;10.08;71.98;100948.94;5076267;28;46533;-71
2023/05/18 05:21:39;;;;;;;;;8.00;6.00;;;;;10.19;71.72;100949.38;5076584;27;46181;-71
2023/05/18 05:24:06;;;;;;;;;9.00;9.00;;;;;10.26;71.54;100950.50;5076297;28;45396;-71
2023/05/18 05:26:32;;;;;;;;;10.00;8.50;;;;;10.31;71.87;100968.16;5077415;27;45433;-71
2023/05/18 05:28:57;;;;;;;;;8.75;8.75;;;;;10.38;71.89;100969.25;5077592;28;45484;-71
2023/05/18 05:31:23;;;;;;;;;10.50;10.00;;;;;10.33;71.58;100950.81;5077179;28;46098;-71
2023/05/18 05:33:48;;;;;;;;;8.50;8.00;;;;;10.39;71.30;100950.16;5076368;27;45608;-72
2023/05/18 05:36:14;;;;;;;;;8.25;8.00;;;;;10.43;71.19;100959.88;5076220;28;45519;-71
2023/05/18 05:38:41;;;;;;;;;7.50;4.25;;;;;10.53;70.97;100971.56;5072354;28;45639;-70
2023/05/18 05:41:06;;;;;;;;;8.25;6.50;;;;;10.41;71.35;100964.16;5071644;28;45727;-70
2023/05/18 05:43:32;;;;;;;;;9.75;8.50;;;;;10.41;71.36;100974.59;5076983;28;45535;-70
2023/05/18 05:45:57;;;;;;;;;9.75;7.75;;;;;10.40;72.04;100967.59;5076923;28;45393;-71
2023/05/18 05:48:23;;;;;;;;;10.00;8.50;;;;;10.27;71.52;100950.56;5077683;27;45503;-71
2023/05/18 05:50:48;;;;;;;;;10.00;9.75;;;;;10.30;71.00;100952.41;5077096;28;46422;-71
2023/05/18 05:53:16;;;;;;;;;10.00;9.00;;;;;10.38;71.25;100970.97;5078010;28;45448;-70
2023/05/18 05:55:42;;;;;;;;;9.00;8.25;;;;;10.38;72.08;100979.69;5077827;28;45600;-71
2023/05/18 05:58:09;;;;;;;;;8.25;8.00;;;;;10.49;72.18;100975.78;5077868;28;45516;-71
2023/05/18 06:00:35;;;;;;;;;11.50;10.00;;;;;10.61;72.06;100977.06;5076884;28;45390;-71
2023/05/18 06:03:01;;;;;;;;;11.75;10.75;;;;;10.72;72.08;100973.09;5077533;27;45554;-73
2023/05/18 06:05:27;;;;;;;;;18.75;18.00;;;;;10.90;71.78;100971.19;5077606;28;45446;-71
2023/05/18 06:07:52;;;;;;;;;18.50;18.50;;;;;11.00;71.09;100961.94;5077938;28;46016;-71
2023/05/18 06:10:18;;;;;;;;;15.00;15.00;;;;;11.10;70.50;100966.63;5076787;28;45424;-71
2023/05/18 06:12:43;;;;;;;;;11.75;11.75;;;;;11.25;70.11;100986.31;5077518;28;45529;-71
2023/05/18 06:15:09;;;;;;;;;16.75;14.00;;;;;11.26;70.55;100962.81;5077443;28;45539;-71
2023/05/18 06:17:35;;;;;;;;;13.25;11.50;;;;;11.46;70.52;100967.81;5077591;28;45493;-71
2023/05/18 06:20:00;;;;;;;;;13.00;12.00;;;;;11.62;70.31;100970.09;5076581;28;46109;-70
2023/05/18 06:22:26;;;;;;;;;14.25;13.75;;;;;11.68;69.64;100965.06;5075416;28;45541;-70
2023/05/18 06:24:51;;;;;;;;;17.25;16.00;;;;;11.97;69.75;100986.06;5076376;28;45492;-70
2023/05/18 06:27:18;;;;;;;;;18.25;15.75;;;;;12.18;69.85;100993.72;5076298;28;45897;-70
2023/05/18 06:29:43;;;;;;;;;24.50;19.75;;;;;12.25;69.10;100986.91;5074638;28;45618;-70
2023/05/18 06:32:11;;;;;;;;;24.75;24.75;;;;;12.44;69.22;100980.50;5062545;28;45388;-70
2023/05/18 06:34:36;;;;;;;;;50.50;40.00;;;;;12.66;68.98;100990.75;5076576;28;45492;-72
2023/05/18 06:37:02;;;;;;;;;42.75;34.75;;;;;12.68;68.30;100977.69;5076046;27;45655;-71
2023/05/18 06:39:28;;;;;;;;;20.75;19.25;;;;;12.99;67.86;100991.63;5076771;28;46411;-70
2023/05/18 06:41:53;;;;;;;;;18.00;16.50;;;;;12.99;67.58;100974.19;5075978;28;45730;-71
2023/05/18 06:44:19;;;;;;;;;21.25;18.50;;;;;13.20;67.83;100993.97;5077002;27;45460;-70
2023/05/18 06:46:47;;;;;;;;;15.00;13.50;;;;;13.45;66.98;101006.91;5077187;28;45389;-71
2023/05/18 06:49:13;;;;;;;;;12.00;11.00;;;;;13.63;66.06;100996.00;5076779;28;45289;-71
2023/05/18 06:51:39;;;;;;;;;10.50;10.50;;;;;13.84;65.09;101002.59;5076544;28;45394;-72
2023/05/18 06:54:04;;;;;;;;;25.25;21.00;;;;;13.96;65.07;101009.88;5074734;28;45929;-72
2023/05/18 06:56:30;;;;;;;;;15.00;14.00;;;;;13.89;65.05;100972.09;5075999;27;46036;-71
2023/05/18 06:58:55;;;;;;;;;11.50;9.75;;;;;14.10;64.40;101003.19;5073332;28;46745;-72
2023/05/18 07:01:21;;;;;;;;;16.50;16.50;;;;;14.11;63.69;100990.09;5074235;28;45588;-72
2023/05/18 07:03:46;;;;;;;;;16.25;13.75;;;;;14.23;63.91;101010.53;5075799;28;45507;-71
2023/05/18 07:06:12;;;;;;;;;19.50;16.00;;;;;14.20;63.70;100981.53;5072064;28;45617;-72
2023/05/18 07:08:38;;;;;;;;;16.50;12.00;;;;;14.58;63.68;100992.00;5075598;28;46123;-72
2023/05/18 07:11:04;;;;;;;;;10.75;9.75;;;;;14.70;62.36;101010.69;5075296;28;45496;-72
2023/05/18 07:13:29;;;;;;;;;12.00;11.00;;;;;14.84;61.91;101008.34;5075464;27;47045;-72
2023/05/18 07:15:56;;;;;;;;;12.75;11.25;;;;;15.00;62.35;101006.00;5075807;27;45498;-71
2023/05/18 07:18:21;;;;;;;;;13.25;12.50;;;;;15.38;62.23;101018.97;5074851;27;45499;-71
2023/05/18 07:20:47;;;;;;;;;14.25;13.00;;;;;15.57;61.36;101005.28;5075420;27;45491;-71
2023/05/18 07:23:13;;;;;;;;;13.25;11.75;;;;;15.92;60.38;101007.63;5073649;28;45586;-71
2023/05/18 07:25:38;;;;;;;;;10.25;10.00;;;;;16.22;60.26;101006.31;5075574;27;45537;-71
2023/05/18 07:28:04;;;;;;;;;13.00;12.00;;;;;16.54;59.38;100984.78;5075160;27;46179;-72
2023/05/18 07:30:30;;;;;;;;;12.00;11.00;;;;;16.81;57.75;100971.94;5075666;27;45458;-73
2023/05/18 07:32:55;;;;;;;;;15.50;13.25;;;;;16.99;58.22;100999.38;5075985;28;45662;-71
2023/05/18 07:35:21;;;;;;;;;13.75;13.75;;;;;17.53;54.97;101008.75;5076799;28;45585;-72
2023/05/18 07:37:48;;;;;;;;;15.25;13.75;;;;;17.58;53.64;101009.66;5073759;28;45441;-72
2023/05/18 07:40:14;;;;;;;;;11.25;10.00;;;;;18.01;51.45;100999.44;5075696;28;45412;-72
2023/05/18 07:42:40;;;;;;;;;13.50;13.00;;;;;18.23;50.23;101018.97;5075832;28;45515;-72
2023/05/18 07:45:06;;;;;;;;;14.00;12.50;;;;;18.42;50.68;101004.09;5076931;28;45286;-73
2023/05/18 07:47:33;;;;;;;;;11.00;11.00;;;;;18.68;50.47;101025.41;5079176;28;46576;-71
2023/05/18 07:49:58;;;;;;;;;8.33;8.00;;;;;19.08;50.59;101025.56;5078777;27;45435;-72
2023/05/18 07:52:24;;;;;;;;;12.00;11.50;;;;;19.12;49.06;101018.50;5078973;28;45323;-71
2023/05/18 07:54:50;;;;;;;;;15.00;13.00;;;;;19.75;48.21;101007.97;5080060;27;45496;-72
2023/05/18 07:57:16;;;;;;;;;13.67;12.00;;;;;19.95;46.45;101007.09;5073997;28;46629;-71
2023/05/18 07:59:41;;;;;;;;;10.00;9.33;;;;;20.02;47.24;100992.94;5076074;28;46169;-72
2023/05/18 08:02:07;;;;;;;;;10.67;9.67;;;;;20.31;45.95;101014.09;5078305;28;45523;-72
2023/05/18 08:04:32;;;;;;;;;11.00;9.67;;;;;20.54;45.93;101003.41;5078161;28;45353;-72
2023/05/18 08:06:59;;;;;;;;;17.67;15.33;;;;;20.81;45.77;100999.78;5078429;27;46803;-72
2023/05/18 08:09:27;;;;;;;;;41.25;36.50;;;;;21.12;43.07;100998.72;5077774;27;45633;-71
2023/05/18 08:11:53;;;;;;;;;18.75;18.25;;;;;21.38;45.03;101015.38;5078661;28;45480;-71
2023/05/18 08:14:19;;;;;;;;;9.00;9.00;;;;;21.81;43.39;101006.22;5078755;28;45617;-73
2023/05/18 08:16:44;;;;;;;;;11.67;10.00;;;;;22.43;40.59;101007.38;5076798;28;47606;-73
2023/05/18 08:19:10;;;;;;;;;7.00;6.33;;;;;22.81;39.84;101007.78;5077886;28;45374;-73
2023/05/18 08:21:35;;;;;;;;;8.00;7.67;;;;;24.19;38.68;100994.97;5078281;28;45183;-72
2023/05/18 08:24:06;;;;;;;;;10.67;10.00;;;;;24.79;37.33;101011.59;5078823;27;45477;-71
2023/05/18 08:26:31;;;;;;;;;12.33;11.00;;;;;25.95;36.93;100986.56;5077370;28;47865;-71
2023/05/18 08:28:57;;;;;;;;;16.00;15.00;;;;;26.63;33.64;100990.03;5077711;28;46264;-72
2023/05/18 08:31:23;;;;;;;;;14.67;12.00;;;;;27.50;33.31;101007.91;5077462;27;45513;-73
2023/05/18 08:33:48;;;;;;;;;11.33;10.67;;;;;29.16;29.84;100990.25;5077035;27;45378;-74
2023/05/18 08:36:15;;;;;;;;;10.00;10.00;;;;;30.29;26.70;101002.53;5077418;28;46220;-74
2023/05/18 08:38:41;;;;;;;;;9.00;9.00;;;;;31.17;28.61;100980.47;5077104;28;45797;-74
2023/05/18 08:41:25;;;;;;;;;8.67;7.67;;;;;30.89;26.22;100971.03;5077582;27;45409;-74
2023/05/18 08:43:57;;;;;;;;;8.00;8.00;;;;;30.67;25.45;100987.31;5077178;28;45466;-74
2023/05/18 08:46:33;;;;;;;;;9.00;8.00;;;;;30.04;26.76;100998.25;5078265;28;45656;-74
2023/05/18 08:49:02;;;;;;;;;8.67;7.00;;;;;29.99;28.51;100983.25;5076118;27;45501;-74
2023/05/18 08:51:32;;;;;;;;;4.00;4.00;;;;;30.06;29.96;100992.78;5078440;27;45439;-74
2023/05/18 08:53:58;;;;;;;;;7.33;6.67;;;;;29.71;29.39;100970.94;5076510;28;46469;-74
2023/05/18 08:56:25;;;;;;;;;8.67;7.00;;;;;29.21;29.02;100974.81;5076186;27;46114;-74
2023/05/18 08:58:54;;;;;;;;;7.33;6.33;;;;;29.61;29.35;100983.06;5076250;28;45574;-74
2023/05/18 09:01:21;;;;;;;;;9.67;8.67;;;;;30.62;28.58;100975.91;5065521;28;45773;-74
2023/05/18 09:03:50;;;;;;;;;7.00;7.00;;;;;30.32;28.01;100981.75;5072154;28;45553;-73
2023/05/18 09:06:18;;;;;;;;;9.33;8.67;;;;;29.39;28.68;100965.13;5077327;28;46282;-74
2023/05/18 09:08:45;;;;;;;;;12.00;9.00;;;;;29.07;28.81;100983.44;5078048;28;45384;-74
2023/05/18 09:11:12;;;;;;;;;7.00;7.00;;;;;29.82;28.13;100981.28;5078269;28;45413;-74
2023/05/18 09:13:38;;;;;;;;;10.00;9.67;;;;;30.38;26.66;100960.84;5077441;27;45580;-73
2023/05/18 09:16:03;;;;;;;;;7.67;5.33;;;;;30.35;24.31;100977.19;5077767;28;45630;-74
2023/05/18 09:18:29;;;;;;;;;7.00;6.00;;;;;29.73;27.13;100979.88;5075974;28;45869;-73
2023/05/18 09:20:55;;;;;;;;;7.33;7.33;;;;;30.07;25.73;100981.09;5077646;28;45429;-74
2023/05/18 09:23:22;;;;;;;;;6.67;5.67;;;;;30.21;26.62;100959.78;5077632;28;45538;-74
2023/05/18 09:25:48;;;;;;;;;10.00;8.67;;;;;31.00;26.43;100946.25;5077263;27;46208;-74
2023/05/18 09:28:35;;;;;;;;;8.33;7.33;;;;;32.01;24.91;100955.56;5077216;27;45364;-74
2023/05/18 09:31:02;;;;;;;;;5.67;5.67;;;;;32.12;24.12;100965.81;5109175;27;45380;-74
2023/05/18 09:33:34;;;;;;;;;7.33;5.67;;;;;32.62;24.45;100975.72;5060536;28;45636;-75
2023/05/18 09:35:59;;;;;;;;;5.00;5.00;;;;;32.13;24.01;100972.94;5075990;28;46026;-75
2023/05/18 09:38:27;;;;;;;;;5.33;5.33;;;;;31.97;25.07;100959.34;5077597;27;45882;-74
2023/05/18 09:40:52;;;;;;;;;8.33;8.00;;;;;32.03;24.45;100954.53;5076806;27;45460;-74
2023/05/18 09:43:19;;;;;;;;;5.33;5.00;;;;;31.66;24.07;100960.97;5075613;28;45718;-74
2023/05/18 09:45:47;;;;;;;;;6.33;5.33;;;;;31.10;25.43;100974.50;5076046;28;47064;-74
2023/05/18 09:48:14;;;;;;;;;7.33;5.67;;;;;30.46;25.38;100983.81;5076890;27;45575;-74
2023/05/18 09:50:41;;;;;;;;;5.00;5.00;;;;;29.83;26.73;100967.75;5075008;28;45501;-74
2023/05/18 09:53:11;;;;;;;;;8.00;7.67;;;;;29.01;27.54;100955.88;5077052;28;45813;-74
2023/05/18 09:55:44;;;;;;;;;8.33;8.33;;;;;28.62;28.20;100946.66;5076876;28;45365;-75
2023/05/18 09:58:10;;;;;;;;;8.00;7.00;;;;;28.73;27.48;100952.50;5075445;28;45425;-74
2023/05/18 10:00:55;;;;;;;;;4.67;4.67;;;;;28.85;27.67;100953.81;5076278;27;45373;-74
2023/05/18 10:03:23;;;;;;;;;6.00;5.33;;;;;29.62;27.22;100958.72;5077309;28;46037;-74
2023/05/18 10:05:50;;;;;;;;;7.67;5.67;;;;;29.98;26.14;100962.63;5075373;28;46880;-74
2023/05/18 10:08:16;;;;;;;;;6.33;5.67;;;;;30.38;24.13;100955.44;5075560;28;46509;-74
2023/05/18 10:10:48;;;;;;;;;6.33;5.00;;;;;30.55;25.21;100966.34;5076673;27;45587;-74
2023/05/18 10:13:18;;;;;;;;;7.00;6.33;;;;;30.89;24.37;100948.56;5075705;28;45563;-74
2023/05/18 10:15:53;;;;;;;;;7.00;7.00;;;;;31.50;24.45;100955.47;5069738;28;47042;-74
2023/05/18 10:18:28;;;;;;;;;6.00;6.00;;;;;32.16;24.33;100957.44;5076022;28;45382;-74
2023/05/18 10:20:57;;;;;;;;;4.33;4.33;;;;;32.07;23.43;100947.13;5076410;28;45538;-74
2023/05/18 10:23:24;;;;;;;;;9.67;8.67;;;;;31.96;24.36;100944.97;5076574;27;45419;-74
2023/05/18 10:25:51;;;;;;;;;3.67;3.00;;;;;31.79;23.26;100926.94;5074738;28;46514;-75
2023/05/18 10:28:24;;;;;;;;;4.67;4.00;;;;;32.46;22.36;100948.63;5076391;28;45529;-74
2023/05/18 10:30:52;;;;;;;;;5.00;4.67;;;;;32.24;22.86;100948.91;5075842;28;45722;-74
2023/05/18 10:33:18;;;;;;;;;4.67;3.67;;;;;31.94;23.72;100946.00;5076042;28;45491;-74
2023/05/18 10:35:48;;;;;;;;;5.67;5.67;;;;;31.19;23.89;100958.81;5075172;28;46972;-74
2023/05/18 10:38:18;;;;;;;;;6.00;5.33;;;;;30.46;23.59;100947.88;5057435;28;45422;-74
2023/05/18 10:40:45;;;;;;;;;4.33;4.33;;;;;30.33;24.37;100956.53;5054620;28;45451;-74
2023/05/18 10:43:12;;;;;;;;;3.67;3.67;;;;;29.95;24.98;100947.47;5070649;28;45569;-74
2023/05/18 10:45:39;;;;;;;;;4.00;4.00;;;;;29.53;24.32;100946.56;5075737;28;46458;-74
2023/05/18 10:48:09;;;;;;;;;6.00;6.00;;;;;28.75;25.24;100947.94;5076326;28;45453;-74
2023/05/18 10:50:38;;;;;;;;;6.00;6.00;;;;;27.71;26.48;100949.91;5057640;28;45596;-73
2023/05/18 10:53:05;;;;;;;;;5.00;5.00;;;;;27.87;26.91;100946.69;5076732;28;45405;-74
2023/05/18 10:55:31;;;;;;;;;5.00;5.00;;;;;27.85;27.00;100938.69;5076021;28;45282;-73
2023/05/18 10:58:04;;;;;;;;;7.67;6.67;;;;;27.82;27.57;100938.81;5057884;28;45395;-74
2023/05/18 11:00:34;;;;;;;;;6.50;6.00;;;;;27.90;27.42;100943.94;5058020;28;45427;-73
2023/05/18 11:03:01;;;;;;;;;6.33;6.00;;;;;28.01;27.22;100940.88;5058493;28;45568;-73
2023/05/18 11:05:27;;;;;;;;;6.00;5.67;;;;;27.80;27.26;100934.44;5057213;28;45715;-73
2023/05/18 11:08:04;;;;;;;;;5.00;4.33;;;;;27.81;27.26;100938.84;5075205;28;45521;-73
2023/05/18 11:10:45;;;;;;;;;6.00;5.67;;;;;27.50;27.00;100946.19;5057378;28;45494;-73
2023/05/18 11:13:13;;;;;;;;;5.00;5.00;;;;;26.84;28.11;100945.63;5053183;28;45454;-73
2023/05/18 11:15:58;;;;;;;;;6.33;5.67;;;;;26.62;28.51;100949.88;5056968;28;45799;-73
2023/05/18 11:18:44;;;;;;;;;6.00;5.00;;;;;26.23;29.29;100932.22;5075471;28;45551;-73
2023/05/18 11:21:34;;;;;;;;;7.33;6.33;;;;;26.45;29.98;100947.69;5062400;28;45295;-73
2023/05/18 11:24:20;;;;;;;;;10.00;8.00;;;;;26.21;29.63;100947.47;5078955;28;45314;-73